createdAt,value
2018-06-02T00:02:21.824Z,10.27
2018-06-02T00:04:49.451Z,9.30
2018-06-02T00:07:17.142Z,10.10
2018-06-02T00:09:44.784Z,11.23
2018-06-02T00:12:12.404Z,9.90
2018-06-02T00:14:40.046Z,10.38
2018-06-02T00:17:07.686Z,10.40
2018-06-02T00:19:35.327Z,12.03
2018-06-02T00:22:02.985Z,10.90
2018-06-02T00:24:30.611Z,11.25
2018-06-02T00:26:58.229Z,10.43
2018-06-02T00:29:25.869Z,11.10
2018-06-02T00:31:53.512Z,10.53
2018-06-02T00:34:21.149Z,10.85
2018-06-02T00:36:48.772Z,9.67
2018-06-02T00:39:16.410Z,11.77
2018-06-02T00:41:44.057Z,11.13
2018-06-02T00:44:11.698Z,11.15
2018-06-02T00:46:39.329Z,10.33
2018-06-02T00:49:06.972Z,10.80
2018-06-02T00:51:34.603Z,12.10
2018-06-02T00:54:02.254Z,10.80
2018-06-02T00:56:29.884Z,12.55
2018-06-02T00:58:57.527Z,11.60
2018-06-02T01:01:25.174Z,11.38
2018-06-02T01:03:52.805Z,10.73
2018-06-02T01:06:20.434Z,10.75
2018-06-02T01:08:48.068Z,11.80
2018-06-02T01:11:15.713Z,10.00
2018-06-02T01:13:43.352Z,10.40
2018-06-02T01:16:10.987Z,10.50
2018-06-02T01:18:38.626Z,10.07
2018-06-02T01:21:06.256Z,10.70
2018-06-02T01:23:33.909Z,11.73
2018-06-02T01:26:01.551Z,10.77
2018-06-02T01:28:29.225Z,10.38
2018-06-02T01:30:56.855Z,10.77
2018-06-02T01:33:24.561Z,11.20
2018-06-02T01:35:52.196Z,10.73
2018-06-02T01:38:19.816Z,11.50
2018-06-02T01:40:47.450Z,13.33
2018-06-02T01:43:15.086Z,11.32
2018-06-02T01:45:42.717Z,11.60
2018-06-02T01:48:10.501Z,11.10
2018-06-02T01:50:38.505Z,11.07
2018-06-02T01:53:06.133Z,11.03
2018-06-02T01:55:33.764Z,11.10
2018-06-02T01:58:01.391Z,11.13
2018-06-02T02:00:29.022Z,10.70
2018-06-02T02:02:56.710Z,10.80
2018-06-02T02:05:24.383Z,11.00
2018-06-02T02:07:52.002Z,10.30
2018-06-02T02:10:19.626Z,11.10
2018-06-02T02:12:47.257Z,10.57
2018-06-02T02:15:14.893Z,10.97
2018-06-02T02:17:42.550Z,11.17
2018-06-02T02:20:10.192Z,12.00
2018-06-02T02:22:37.808Z,10.20
2018-06-02T02:25:05.445Z,11.40
2018-06-02T02:27:33.065Z,11.70
2018-06-02T02:30:00.708Z,9.90
2018-06-02T02:32:28.337Z,12.40
2018-06-02T02:34:56.027Z,12.70
2018-06-02T02:37:23.665Z,12.60
2018-06-02T02:39:51.294Z,11.33
2018-06-02T02:42:18.929Z,13.10
2018-06-02T02:44:46.569Z,12.07
2018-06-02T02:47:14.203Z,13.40
2018-06-02T02:49:41.853Z,13.87
2018-06-02T02:52:09.503Z,12.90
2018-06-02T02:54:37.149Z,13.33
2018-06-02T02:57:04.809Z,13.47
2018-06-02T02:59:32.446Z,13.40
2018-06-02T03:02:00.065Z,13.60
2018-06-02T03:04:27.688Z,12.97
2018-06-02T03:06:55.326Z,11.50
2018-06-02T03:09:22.957Z,11.17
2018-06-02T03:11:50.602Z,10.50
2018-06-02T03:14:18.230Z,12.52
2018-06-02T03:16:45.870Z,12.02
2018-06-02T03:19:13.513Z,13.23
2018-06-02T03:21:41.169Z,11.80
2018-06-02T03:24:08.825Z,11.85
2018-06-02T03:26:36.465Z,11.85
2018-06-02T03:29:12.469Z,11.20
2018-06-02T03:31:47.132Z,12.00
2018-06-02T03:34:15.045Z,11.18
2018-06-02T03:36:42.702Z,10.73
2018-06-02T03:39:10.360Z,10.75
2018-06-02T03:41:37.997Z,12.13
2018-06-02T03:44:19.450Z,10.43
2018-06-02T03:46:47.083Z,11.47
2018-06-02T03:49:14.726Z,11.20
2018-06-02T03:51:42.381Z,10.60
2018-06-02T03:54:10.020Z,11.57
2018-06-02T03:56:37.679Z,10.73
2018-06-02T03:59:05.364Z,10.50
2018-06-02T04:01:33.007Z,11.27
2018-06-02T04:04:00.677Z,11.00
2018-06-02T04:06:28.322Z,11.80
2018-06-02T04:08:55.967Z,11.63
2018-06-02T04:11:23.611Z,12.17
2018-06-02T04:13:51.228Z,12.50
2018-06-02T04:16:18.868Z,12.97
2018-06-02T04:18:46.514Z,14.23
2018-06-02T04:21:14.150Z,13.23
2018-06-02T04:23:41.778Z,14.18
2018-06-02T04:26:09.417Z,13.63
2018-06-02T04:28:37.070Z,12.80
2018-06-02T04:31:04.799Z,14.30
2018-06-02T04:33:32.439Z,13.15
2018-06-02T04:36:00.073Z,12.40
2018-06-02T04:38:27.711Z,14.85
2018-06-02T04:40:55.354Z,14.00
2018-06-02T04:43:22.982Z,13.90
2018-06-02T04:45:50.611Z,13.50
2018-06-02T04:48:18.265Z,13.05
2018-06-02T04:50:45.910Z,12.73
2018-06-02T04:53:13.554Z,13.62
2018-06-02T04:55:41.181Z,14.80
2018-06-02T04:58:08.819Z,17.20
2018-06-02T05:00:36.482Z,18.43
2018-06-02T05:03:04.141Z,14.70
2018-06-02T05:05:31.777Z,16.00
2018-06-02T05:07:59.444Z,15.90
2018-06-02T05:10:27.073Z,22.63
2018-06-02T05:12:54.710Z,25.30
2018-06-02T05:15:22.340Z,29.95
2018-06-02T05:17:49.999Z,33.85
2018-06-02T05:20:17.646Z,33.50
2018-06-02T05:22:45.302Z,33.63
2018-06-02T05:25:12.939Z,42.50
2018-06-02T05:27:40.570Z,49.83
2018-06-02T05:30:08.214Z,56.53
2018-06-02T05:32:35.853Z,56.67
2018-06-02T05:35:03.493Z,65.20
2018-06-02T05:37:31.130Z,69.28
2018-06-02T05:39:58.776Z,70.33
2018-06-02T05:42:26.407Z,65.65
2018-06-02T05:44:54.043Z,62.17
2018-06-02T05:47:21.707Z,61.30
2018-06-02T05:49:49.372Z,64.87
2018-06-02T05:52:18.067Z,58.97
2018-06-02T05:54:45.710Z,58.27
2018-06-02T05:57:13.468Z,65.70
2018-06-02T05:59:45.164Z,64.23
2018-06-02T06:02:08.809Z,67.73
2018-06-02T06:04:36.473Z,66.67
2018-06-02T06:07:04.147Z,58.70
2018-06-02T06:09:31.794Z,59.90
2018-06-02T06:12:05.949Z,57.27
2018-06-02T06:14:42.775Z,60.57
2018-06-02T06:17:18.503Z,62.17
2018-06-02T06:19:53.412Z,62.47
2018-06-02T06:22:28.235Z,64.63
2018-06-02T06:24:56.242Z,67.77
2018-06-02T06:27:32.693Z,67.60
2018-06-02T06:30:06.510Z,74.27
2018-06-02T06:32:40.992Z,75.10
2018-06-02T06:35:13.689Z,77.50
2018-06-02T06:37:46.506Z,86.30
2018-06-02T06:40:21.627Z,88.40
2018-06-02T06:42:56.463Z,93.87
2018-06-02T06:45:30.883Z,93.07
2018-06-02T06:48:06.521Z,96.43
2018-06-02T06:50:34.433Z,88.23
2018-06-02T06:53:02.086Z,82.97
2018-06-02T06:55:29.729Z,88.17
2018-06-02T06:57:57.385Z,84.20
2018-06-02T07:00:25.029Z,80.60
2018-06-02T07:02:52.665Z,80.47
2018-06-02T07:05:21.839Z,72.50
2018-06-02T07:07:49.488Z,78.70
2018-06-02T07:10:17.134Z,79.37
2018-06-02T07:12:44.771Z,73.20
2018-06-02T07:15:12.420Z,68.70
2018-06-02T07:17:40.191Z,72.50
2018-06-02T07:20:08.111Z,72.77
2018-06-02T07:22:35.738Z,73.23
2018-06-02T07:25:03.380Z,71.33
2018-06-02T07:27:31.037Z,71.97
2018-06-02T07:29:58.689Z,77.70
2018-06-02T07:32:26.315Z,73.80
2018-06-02T07:34:53.943Z,68.37
2018-06-02T07:37:21.594Z,68.13
2018-06-02T07:39:49.233Z,74.97
2018-06-02T07:42:16.875Z,70.17
2018-06-02T07:44:44.541Z,74.07
2018-06-02T07:47:12.182Z,69.15
2018-06-02T07:49:39.813Z,64.50
2018-06-02T07:52:07.465Z,61.80
2018-06-02T07:54:35.094Z,66.17
2018-06-02T07:57:02.726Z,61.40
2018-06-02T07:59:30.369Z,53.60
2018-06-02T08:01:58.210Z,60.87
2018-06-02T08:04:25.867Z,59.00
2018-06-02T08:06:53.494Z,55.87
2018-06-02T08:09:21.174Z,64.23
2018-06-02T08:11:48.840Z,56.10
2018-06-02T08:14:16.490Z,63.20
2018-06-02T08:16:44.144Z,57.60
2018-06-02T08:19:11.812Z,64.03
2018-06-02T08:21:39.573Z,63.03
2018-06-02T08:24:07.224Z,59.13
2018-06-02T08:26:34.878Z,64.10
2018-06-02T08:29:02.577Z,62.25
2018-06-02T08:31:30.202Z,61.65
2018-06-02T08:33:57.872Z,60.97
2018-06-02T08:36:25.519Z,63.37
2018-06-02T08:38:53.225Z,66.05
2018-06-02T08:41:20.895Z,67.80
2018-06-02T08:43:48.514Z,65.27
2018-06-02T08:46:16.253Z,62.60
2018-06-02T08:48:43.901Z,70.50
2018-06-02T08:51:11.539Z,67.37
2018-06-02T08:53:39.167Z,63.83
2018-06-02T08:56:06.813Z,62.63
2018-06-02T08:58:34.445Z,63.03
2018-06-02T09:01:02.081Z,72.37
2018-06-02T09:03:29.719Z,64.67
2018-06-02T09:05:57.347Z,67.53
2018-06-02T09:08:24.988Z,64.97
2018-06-02T09:10:52.738Z,67.47
2018-06-02T09:13:20.369Z,74.30
2018-06-02T09:15:48.014Z,65.40
2018-06-02T09:18:15.653Z,73.68
2018-06-02T09:20:43.283Z,73.57
2018-06-02T09:23:10.931Z,67.13
2018-06-02T09:25:38.575Z,68.90
2018-06-02T09:28:07.072Z,71.57
2018-06-02T09:30:34.715Z,66.37
2018-06-02T09:33:02.382Z,71.10
2018-06-02T09:35:30.026Z,69.10
2018-06-02T09:37:57.669Z,60.67
2018-06-02T09:40:25.296Z,63.97
2018-06-02T09:42:52.927Z,67.87
2018-06-02T09:45:20.574Z,68.63
2018-06-02T09:47:48.286Z,71.70
2018-06-02T09:50:15.888Z,71.27
2018-06-02T09:52:43.536Z,67.87
2018-06-02T09:55:11.167Z,67.47
2018-06-02T09:57:38.812Z,61.23
2018-06-02T10:00:06.484Z,67.22
2018-06-02T10:02:34.110Z,66.37
2018-06-02T10:05:01.747Z,60.50
2018-06-02T10:07:29.374Z,60.93
2018-06-02T10:09:57.008Z,63.93
2018-06-02T10:12:24.632Z,61.13
2018-06-02T10:14:52.260Z,62.83
2018-06-02T10:17:19.908Z,63.03
2018-06-02T10:19:47.549Z,56.42
2018-06-02T10:22:15.182Z,50.90
2018-06-02T10:24:42.836Z,58.50
2018-06-02T10:27:10.461Z,60.53
2018-06-02T10:29:38.147Z,54.43
2018-06-02T10:32:06.533Z,54.28
2018-06-02T10:34:34.690Z,55.28
2018-06-02T10:37:02.329Z,55.42
2018-06-02T10:39:29.970Z,53.00
2018-06-02T10:41:57.619Z,55.03
2018-06-02T10:44:25.362Z,56.97
2018-06-02T10:46:52.951Z,54.05
2018-06-02T10:49:20.599Z,55.97
2018-06-02T10:51:48.248Z,59.90
2018-06-02T10:54:15.877Z,60.00
2018-06-02T10:56:43.518Z,59.00
2018-06-02T10:59:11.158Z,60.00
2018-06-02T11:01:38.814Z,59.37
2018-06-02T11:04:06.442Z,57.37
2018-06-02T11:06:34.105Z,62.20
2018-06-02T11:09:01.806Z,56.50
2018-06-02T11:11:29.440Z,58.07
2018-06-02T11:13:57.083Z,58.70
2018-06-02T11:16:24.714Z,65.23
2018-06-02T11:18:52.345Z,59.85
2018-06-02T11:21:19.987Z,59.47
2018-06-02T11:23:47.635Z,61.73
2018-06-02T11:26:15.270Z,65.10
2018-06-02T11:28:42.921Z,64.87
2018-06-02T11:31:10.557Z,67.60
2018-06-02T11:33:38.206Z,63.97
2018-06-02T11:36:05.833Z,67.67
2018-06-02T11:38:33.475Z,66.23
2018-06-02T11:41:01.107Z,67.57
2018-06-02T11:43:28.751Z,63.47
2018-06-02T11:45:56.392Z,62.80
2018-06-02T11:48:24.035Z,54.85
2018-06-02T11:50:51.757Z,55.73
2018-06-02T11:53:19.385Z,53.20
2018-06-02T11:55:47.002Z,56.30
2018-06-02T11:58:14.665Z,51.67
2018-06-02T12:00:42.336Z,55.00
2018-06-02T12:03:09.977Z,52.40
2018-06-02T12:05:37.608Z,53.23
2018-06-02T12:08:05.972Z,51.20
2018-06-02T12:10:33.610Z,51.07
2018-06-02T12:13:01.269Z,50.77
2018-06-02T12:15:28.937Z,50.38
2018-06-02T12:17:56.575Z,50.07
2018-06-02T12:20:24.239Z,44.85
2018-06-02T12:22:51.865Z,45.63
2018-06-02T12:25:19.515Z,46.42
2018-06-02T12:27:47.145Z,46.40
2018-06-02T12:30:14.801Z,45.15
2018-06-02T12:32:42.447Z,46.67
2018-06-02T12:35:10.107Z,46.87
2018-06-02T12:37:37.753Z,42.97
2018-06-02T12:40:05.409Z,44.70
2018-06-02T12:42:33.065Z,44.07
2018-06-02T12:45:00.709Z,47.43
2018-06-02T12:47:28.362Z,45.00
2018-06-02T12:49:56.001Z,46.20
2018-06-02T12:52:24.120Z,42.30
2018-06-02T12:54:52.278Z,44.22
2018-06-02T12:57:19.968Z,37.47
2018-06-02T12:59:47.614Z,33.10
2018-06-02T13:02:15.276Z,33.17
2018-06-02T13:04:42.932Z,32.22
2018-06-02T13:07:10.565Z,32.50
2018-06-02T13:09:38.215Z,30.50
2018-06-02T13:12:06.756Z,30.73
2018-06-02T13:14:34.411Z,31.67
2018-06-02T13:17:02.061Z,30.65
2018-06-02T13:19:29.710Z,28.13
2018-06-02T13:21:57.369Z,28.52
2018-06-02T13:24:25.290Z,27.33
2018-06-02T13:26:52.951Z,28.87
2018-06-02T13:29:20.609Z,27.77
2018-06-02T13:31:48.246Z,27.53
2018-06-02T13:34:15.921Z,28.40
2018-06-02T13:36:43.595Z,25.30
2018-06-02T13:39:11.290Z,27.60
2018-06-02T13:41:38.919Z,25.63
2018-06-02T13:44:06.574Z,26.70
2018-06-02T13:46:34.218Z,25.40
2018-06-02T13:49:01.891Z,28.80
2018-06-02T13:51:29.799Z,26.63
2018-06-02T13:53:57.460Z,25.70
2018-06-02T13:56:25.122Z,28.43
2018-06-02T13:58:52.765Z,27.90
2018-06-02T14:01:20.419Z,29.73
2018-06-02T14:03:48.956Z,28.50
2018-06-02T14:06:16.613Z,29.97
2018-06-02T14:08:44.267Z,30.40
2018-06-02T14:11:11.918Z,30.97
2018-06-02T14:13:42.021Z,30.87
2018-06-02T14:16:09.680Z,31.87
2018-06-02T14:18:37.349Z,29.97
2018-06-02T14:21:05.005Z,30.20
2018-06-02T14:23:32.644Z,31.77
2018-06-02T14:26:00.302Z,31.17
2018-06-02T14:28:27.949Z,31.90
2018-06-02T14:30:55.598Z,31.03
2018-06-02T14:33:23.261Z,31.80
2018-06-02T14:35:50.898Z,30.87
2018-06-02T14:38:18.554Z,30.13
2018-06-02T14:40:46.196Z,30.60
2018-06-02T14:43:13.843Z,31.23
2018-06-02T14:45:41.482Z,29.03
2018-06-02T14:48:09.129Z,30.10
2018-06-02T14:50:36.787Z,32.30
2018-06-02T14:53:04.444Z,31.70
2018-06-02T14:55:32.083Z,31.43
2018-06-02T14:57:59.724Z,31.10
2018-06-02T15:00:27.367Z,30.30
2018-06-02T15:02:55.016Z,31.85
2018-06-02T15:05:22.663Z,31.37
2018-06-02T15:07:50.299Z,28.87
2018-06-02T15:10:17.990Z,30.48
2018-06-02T15:12:45.626Z,31.73
2018-06-02T15:15:13.262Z,29.70
2018-06-02T15:17:40.916Z,29.87
2018-06-02T15:20:08.564Z,28.77
2018-06-02T15:22:36.219Z,28.80
2018-06-02T15:25:03.920Z,29.58
2018-06-02T15:27:31.543Z,30.10
2018-06-02T15:29:59.204Z,30.17
2018-06-02T15:32:26.850Z,28.40
2018-06-02T15:34:54.495Z,30.90
2018-06-02T15:37:22.155Z,28.30
2018-06-02T15:39:49.794Z,28.80
2018-06-02T15:42:17.434Z,29.70
2018-06-02T15:44:45.119Z,28.83
2018-06-02T15:47:12.768Z,28.77
2018-06-02T15:49:40.405Z,29.05
2018-06-02T15:52:08.067Z,29.20
2018-06-02T15:54:35.707Z,29.00
2018-06-02T15:57:03.342Z,28.57
2018-06-02T15:59:30.989Z,30.37
2018-06-02T16:01:58.646Z,30.20
2018-06-02T16:04:26.297Z,30.40
2018-06-02T16:06:53.945Z,29.87
2018-06-02T16:09:21.585Z,31.77
2018-06-02T16:11:49.249Z,34.07
2018-06-02T16:14:16.921Z,34.70
2018-06-02T16:16:44.588Z,37.03
2018-06-02T16:19:12.225Z,37.60
2018-06-02T16:21:39.887Z,38.37
2018-06-02T16:24:07.532Z,36.57
2018-06-02T16:26:35.175Z,34.10
2018-06-02T16:29:02.835Z,33.10
2018-06-02T16:31:30.485Z,36.80
2018-06-02T16:33:58.140Z,36.60
2018-06-02T16:36:25.767Z,35.00
2018-06-02T16:38:53.415Z,33.80
2018-06-02T16:41:21.049Z,33.50
2018-06-02T16:43:48.751Z,38.00
2018-06-02T16:46:16.397Z,35.17
2018-06-02T16:48:44.054Z,37.17
2018-06-02T16:51:11.718Z,38.80
2018-06-02T16:53:39.367Z,38.73
2018-06-02T16:56:07.023Z,36.78
2018-06-02T16:58:34.670Z,37.80
2018-06-02T17:01:02.326Z,36.67
2018-06-02T17:03:29.999Z,35.63
2018-06-02T17:05:57.630Z,36.27
2018-06-02T17:08:25.304Z,36.13
2018-06-02T17:10:52.956Z,33.60
2018-06-02T17:13:20.605Z,35.07
2018-06-02T17:15:48.240Z,35.10
2018-06-02T17:18:15.876Z,34.73
2018-06-02T17:20:43.531Z,36.25
2018-06-02T17:23:11.172Z,35.70
2018-06-02T17:25:38.838Z,38.27
2018-06-02T17:28:07.053Z,38.35
2018-06-02T17:30:34.693Z,37.37
2018-06-02T17:33:02.349Z,36.60
2018-06-02T17:35:30.015Z,35.60
2018-06-02T17:37:57.685Z,37.42
2018-06-02T17:40:25.327Z,39.10
2018-06-02T17:42:56.932Z,38.42
2018-06-02T17:45:24.590Z,37.20
2018-06-02T17:47:52.244Z,40.67
2018-06-02T17:50:19.893Z,38.20
2018-06-02T17:52:47.545Z,39.13
2018-06-02T17:55:15.200Z,39.47
2018-06-02T17:57:42.846Z,41.30
2018-06-02T18:00:10.502Z,42.00
2018-06-02T18:02:38.151Z,40.47
2018-06-02T18:05:05.806Z,41.20
2018-06-02T18:07:33.476Z,40.10
2018-06-02T18:10:01.138Z,41.53
2018-06-02T18:12:28.783Z,41.00
2018-06-02T18:14:56.438Z,43.53
2018-06-02T18:17:24.104Z,43.07
2018-06-02T18:19:51.765Z,44.60
2018-06-02T18:22:19.394Z,42.53
2018-06-02T18:24:47.029Z,43.53
2018-06-02T18:27:14.680Z,42.57
2018-06-02T18:29:42.318Z,41.50
2018-06-02T18:32:09.974Z,42.80
2018-06-02T18:34:37.614Z,40.93
2018-06-02T18:37:05.314Z,42.70
2018-06-02T18:39:32.962Z,44.33
2018-06-02T18:42:00.611Z,42.53
2018-06-02T18:44:28.249Z,43.47
2018-06-02T18:46:55.903Z,46.22
2018-06-02T18:49:23.552Z,43.30
2018-06-02T18:51:51.202Z,46.70
2018-06-02T18:54:18.865Z,41.27
2018-06-02T18:56:46.542Z,43.80
2018-06-02T18:59:14.178Z,42.60
2018-06-02T19:01:41.823Z,43.60
2018-06-02T19:04:33.539Z,43.70
2018-06-02T19:07:19.725Z,44.07
2018-06-02T19:09:47.409Z,44.80
2018-06-02T19:12:15.063Z,47.30
2018-06-02T19:14:42.719Z,46.83
2018-06-02T19:17:10.354Z,45.72
2018-06-02T19:19:38.015Z,47.17
2018-06-02T19:22:05.658Z,45.80
2018-06-02T19:24:33.293Z,48.30
2018-06-02T19:27:00.931Z,48.63
2018-06-02T19:29:28.583Z,44.87
2018-06-02T19:31:56.228Z,50.30
2018-06-02T19:34:23.857Z,48.10
2018-06-02T19:36:51.497Z,47.40
2018-06-02T19:39:19.161Z,48.57
2018-06-02T19:41:46.810Z,50.45
2018-06-02T19:44:14.458Z,47.43
2018-06-02T19:46:42.128Z,47.78
2018-06-02T19:49:09.807Z,48.87
2018-06-02T19:51:37.435Z,47.85
2018-06-02T19:54:05.085Z,45.77
2018-06-02T19:56:32.749Z,49.83
2018-06-02T19:59:00.386Z,46.20
2018-06-02T20:01:28.134Z,47.30
2018-06-02T20:03:55.709Z,46.20
2018-06-02T20:06:23.340Z,48.45
2018-06-02T20:08:50.962Z,47.17
2018-06-02T20:11:18.590Z,48.22
2018-06-02T20:13:46.231Z,45.23
2018-06-02T20:16:13.899Z,43.95
2018-06-02T20:18:41.533Z,44.90
2018-06-02T20:21:09.175Z,46.17
2018-06-02T20:23:36.829Z,44.60
2018-06-02T20:26:04.491Z,41.80
2018-06-02T20:28:32.142Z,40.73
2018-06-02T20:30:59.781Z,43.10
2018-06-02T20:33:27.424Z,40.03
2018-06-02T20:35:55.050Z,41.78
2018-06-02T20:38:22.703Z,43.43
2018-06-02T20:40:50.356Z,41.67
2018-06-02T20:43:18.007Z,40.00
2018-06-02T20:45:45.646Z,42.17
2018-06-02T20:48:13.294Z,41.25
2018-06-02T20:50:40.945Z,42.95
2018-06-02T20:53:08.650Z,41.90
2018-06-02T20:55:36.262Z,42.97
2018-06-02T20:58:03.894Z,44.07
2018-06-02T21:00:31.528Z,43.43
2018-06-02T21:02:59.164Z,42.70
2018-06-02T21:05:26.806Z,41.47
2018-06-02T21:07:54.441Z,44.43
2018-06-02T21:10:22.090Z,43.63
2018-06-02T21:12:49.721Z,42.03
2018-06-02T21:15:17.375Z,41.33
2018-06-02T21:17:45.014Z,42.60
2018-06-02T21:20:12.729Z,41.40
2018-06-02T21:22:40.365Z,42.43
2018-06-02T21:25:08.043Z,42.47
2018-06-02T21:27:35.696Z,40.33
2018-06-02T21:30:03.387Z,38.57
2018-06-02T21:32:31.065Z,41.13
2018-06-02T21:34:58.694Z,41.35
2018-06-02T21:37:26.345Z,41.10
2018-06-02T21:39:53.994Z,40.03
2018-06-02T21:42:21.668Z,38.25
2018-06-02T21:44:49.316Z,39.20
2018-06-02T21:47:16.955Z,39.03
2018-06-02T21:49:44.606Z,38.15
2018-06-02T21:52:12.248Z,40.40
2018-06-02T21:54:39.916Z,39.40
2018-06-02T21:57:07.545Z,39.00
2018-06-02T21:59:35.186Z,38.60
2018-06-02T22:02:02.818Z,38.30
2018-06-02T22:04:30.460Z,39.63
2018-06-02T22:06:58.168Z,37.83
2018-06-02T22:09:25.823Z,40.97
2018-06-02T22:11:53.491Z,40.13
2018-06-02T22:14:21.154Z,39.60
2018-06-02T22:16:48.837Z,40.40
2018-06-02T22:19:16.491Z,43.13
2018-06-02T22:21:44.134Z,40.43
2018-06-02T22:24:11.773Z,38.63
2018-06-02T22:26:39.416Z,39.30
2018-06-02T22:29:07.072Z,40.30
2018-06-02T22:31:34.716Z,41.63
2018-06-02T22:34:02.346Z,39.58
2018-06-02T22:36:30.009Z,43.97
2018-06-02T22:38:57.634Z,41.27
2018-06-02T22:41:25.294Z,46.47
2018-06-02T22:43:52.926Z,44.30
2018-06-02T22:46:20.558Z,42.83
2018-06-02T22:48:48.202Z,45.30
2018-06-02T22:51:15.871Z,46.50
2018-06-02T22:53:43.521Z,43.20
2018-06-02T22:56:11.207Z,43.07
2018-06-02T22:58:38.895Z,46.10
2018-06-02T23:01:06.596Z,44.30
2018-06-02T23:03:34.293Z,48.20
2018-06-02T23:06:01.958Z,45.17
2018-06-02T23:08:29.615Z,44.47
2018-06-02T23:10:57.266Z,44.70
2018-06-02T23:13:24.907Z,45.80
2018-06-02T23:15:52.544Z,46.83
2018-06-02T23:18:20.186Z,44.90
2018-06-02T23:20:47.827Z,46.10
2018-06-02T23:23:15.470Z,46.70
2018-06-02T23:25:43.109Z,47.23
2018-06-02T23:28:11.772Z,50.40
2018-06-02T23:30:39.416Z,52.83
2018-06-02T23:33:07.051Z,53.23
2018-06-02T23:35:34.684Z,55.17
2018-06-02T23:38:02.317Z,57.17
2018-06-02T23:40:29.961Z,56.47
2018-06-02T23:42:57.648Z,56.33
2018-06-02T23:45:25.293Z,57.67
2018-06-02T23:47:52.930Z,60.80
2018-06-02T23:50:20.562Z,61.42
2018-06-02T23:52:48.206Z,59.97
2018-06-02T23:55:15.850Z,59.83
2018-06-02T23:57:43.483Z,59.22
